sensor_id;sensor_type;location;lat;lon;timestamp;P1;durP1;ratioP1;P2;durP2;ratioP2
4232;SDS011;2130;48.472;11.934;2023-04-09T00:00:16;21.70;;;2.80;;
4232;SDS011;2130;48.472;11.934;2023-04-09T00:03:06;19.03;;;2.50;;
4232;SDS011;2130;48.472;11.934;2023-04-09T00:05:55;17.90;;;1.80;;
4232;SDS011;2130;48.472;11.934;2023-04-09T00:08:43;18.40;;;2.10;;
4232;SDS011;2130;48.472;11.934;2023-04-09T00:11:31;18.17;;;1.90;;
4232;SDS011;2130;48.472;11.934;2023-04-09T00:14:20;19.90;;;2.20;;
4232;SDS011;2130;48.472;11.934;2023-04-09T00:17:08;18.40;;;1.60;;
4232;SDS011;2130;48.472;11.934;2023-04-09T00:19:58;18.50;;;2.17;;
4232;SDS011;2130;48.472;11.934;2023-04-09T00:22:46;19.83;;;2.03;;
4232;SDS011;2130;48.472;11.934;2023-04-09T00:25:35;18.80;;;2.40;;
4232;SDS011;2130;48.472;11.934;2023-04-09T00:28:24;18.47;;;2.00;;
4232;SDS011;2130;48.472;11.934;2023-04-09T00:31:12;19.07;;;2.23;;
4232;SDS011;2130;48.472;11.934;2023-04-09T00:34:00;18.10;;;1.97;;
4232;SDS011;2130;48.472;11.934;2023-04-09T00:36:50;20.97;;;2.30;;
4232;SDS011;2130;48.472;11.934;2023-04-09T00:39:39;18.90;;;2.43;;
4232;SDS011;2130;48.472;11.934;2023-04-09T00:42:29;19.10;;;2.17;;
4232;SDS011;2130;48.472;11.934;2023-04-09T00:45:18;18.37;;;2.20;;
4232;SDS011;2130;48.472;11.934;2023-04-09T00:48:07;19.43;;;2.43;;
4232;SDS011;2130;48.472;11.934;2023-04-09T00:50:55;19.53;;;2.00;;
4232;SDS011;2130;48.472;11.934;2023-04-09T00:53:45;20.13;;;2.37;;
4232;SDS011;2130;48.472;11.934;2023-04-09T00:56:33;18.20;;;1.90;;
4232;SDS011;2130;48.472;11.934;2023-04-09T00:59:23;19.10;;;2.23;;
4232;SDS011;2130;48.472;11.934;2023-04-09T01:02:12;17.90;;;1.90;;
4232;SDS011;2130;48.472;11.934;2023-04-09T01:05:01;19.03;;;1.93;;
4232;SDS011;2130;48.472;11.934;2023-04-09T01:08:02;18.10;;;2.10;;
4232;SDS011;2130;48.472;11.934;2023-04-09T01:10:58;18.30;;;2.00;;
4232;SDS011;2130;48.472;11.934;2023-04-09T01:13:54;18.67;;;2.37;;
4232;SDS011;2130;48.472;11.934;2023-04-09T01:16:50;18.07;;;2.27;;
4232;SDS011;2130;48.472;11.934;2023-04-09T01:19:42;18.37;;;2.13;;
4232;SDS011;2130;48.472;11.934;2023-04-09T01:22:37;18.03;;;1.93;;
4232;SDS011;2130;48.472;11.934;2023-04-09T01:25:34;16.90;;;1.80;;
4232;SDS011;2130;48.472;11.934;2023-04-09T01:28:34;17.83;;;1.77;;
4232;SDS011;2130;48.472;11.934;2023-04-09T01:31:25;18.63;;;2.27;;
4232;SDS011;2130;48.472;11.934;2023-04-09T01:34:16;19.80;;;2.30;;
4232;SDS011;2130;48.472;11.934;2023-04-09T01:37:05;17.43;;;1.90;;
4232;SDS011;2130;48.472;11.934;2023-04-09T01:39:54;19.60;;;2.53;;
4232;SDS011;2130;48.472;11.934;2023-04-09T01:42:43;19.37;;;2.50;;
4232;SDS011;2130;48.472;11.934;2023-04-09T01:45:34;18.73;;;2.00;;
4232;SDS011;2130;48.472;11.934;2023-04-09T01:48:23;18.37;;;1.90;;
4232;SDS011;2130;48.472;11.934;2023-04-09T01:51:11;18.47;;;2.30;;
4232;SDS011;2130;48.472;11.934;2023-04-09T01:54:00;19.53;;;2.27;;
4232;SDS011;2130;48.472;11.934;2023-04-09T01:56:49;17.30;;;1.60;;
4232;SDS011;2130;48.472;11.934;2023-04-09T01:59:37;18.77;;;2.07;;
4232;SDS011;2130;48.472;11.934;2023-04-09T02:02:30;19.93;;;2.50;;
4232;SDS011;2130;48.472;11.934;2023-04-09T02:05:23;18.77;;;2.30;;
4232;SDS011;2130;48.472;11.934;2023-04-09T02:08:15;18.60;;;1.77;;
4232;SDS011;2130;48.472;11.934;2023-04-09T02:11:07;18.37;;;2.33;;
4232;SDS011;2130;48.472;11.934;2023-04-09T02:13:57;19.30;;;2.40;;
4232;SDS011;2130;48.472;11.934;2023-04-09T02:16:45;19.57;;;2.43;;
4232;SDS011;2130;48.472;11.934;2023-04-09T02:19:38;19.10;;;2.20;;
4232;SDS011;2130;48.472;11.934;2023-04-09T02:22:27;19.23;;;2.30;;
4232;SDS011;2130;48.472;11.934;2023-04-09T02:25:16;18.07;;;2.07;;
4232;SDS011;2130;48.472;11.934;2023-04-09T02:28:04;19.30;;;2.80;;
4232;SDS011;2130;48.472;11.934;2023-04-09T02:30:52;18.30;;;2.40;;
4232;SDS011;2130;48.472;11.934;2023-04-09T02:33:41;18.13;;;1.97;;
4232;SDS011;2130;48.472;11.934;2023-04-09T02:36:31;18.60;;;2.73;;
4232;SDS011;2130;48.472;11.934;2023-04-09T02:39:19;20.10;;;2.70;;
4232;SDS011;2130;48.472;11.934;2023-04-09T02:42:08;19.93;;;2.50;;
4232;SDS011;2130;48.472;11.934;2023-04-09T02:44:56;17.80;;;2.60;;
4232;SDS011;2130;48.472;11.934;2023-04-09T02:47:46;18.67;;;2.40;;
4232;SDS011;2130;48.472;11.934;2023-04-09T02:50:34;19.17;;;2.63;;
4232;SDS011;2130;48.472;11.934;2023-04-09T02:53:24;19.43;;;3.03;;
4232;SDS011;2130;48.472;11.934;2023-04-09T02:56:13;18.53;;;2.37;;
4232;SDS011;2130;48.472;11.934;2023-04-09T02:59:01;19.63;;;2.53;;
4232;SDS011;2130;48.472;11.934;2023-04-09T03:01:50;18.80;;;2.63;;
4232;SDS011;2130;48.472;11.934;2023-04-09T03:04:38;17.50;;;2.30;;
4232;SDS011;2130;48.472;11.934;2023-04-09T03:07:26;22.00;;;2.10;;
4232;SDS011;2130;48.472;11.934;2023-04-09T03:10:16;17.20;;;1.70;;
4232;SDS011;2130;48.472;11.934;2023-04-09T03:13:05;17.70;;;1.90;;
4232;SDS011;2130;48.472;11.934;2023-04-09T03:15:53;17.30;;;2.00;;
4232;SDS011;2130;48.472;11.934;2023-04-09T03:18:41;18.43;;;2.10;;
4232;SDS011;2130;48.472;11.934;2023-04-09T03:21:30;17.00;;;1.73;;
4232;SDS011;2130;48.472;11.934;2023-04-09T03:24:19;18.80;;;2.17;;
4232;SDS011;2130;48.472;11.934;2023-04-09T03:27:09;18.27;;;2.10;;
4232;SDS011;2130;48.472;11.934;2023-04-09T03:29:58;19.20;;;2.40;;
4232;SDS011;2130;48.472;11.934;2023-04-09T03:32:54;17.10;;;1.80;;
4232;SDS011;2130;48.472;11.934;2023-04-09T03:35:43;19.33;;;2.30;;
4232;SDS011;2130;48.472;11.934;2023-04-09T03:38:32;18.50;;;2.50;;
4232;SDS011;2130;48.472;11.934;2023-04-09T03:41:28;18.97;;;1.93;;
4232;SDS011;2130;48.472;11.934;2023-04-09T03:44:22;17.40;;;2.20;;
4232;SDS011;2130;48.472;11.934;2023-04-09T03:47:21;17.97;;;2.27;;
4232;SDS011;2130;48.472;11.934;2023-04-09T03:50:10;20.80;;;2.60;;
4232;SDS011;2130;48.472;11.934;2023-04-09T03:53:05;17.07;;;2.10;;
4232;SDS011;2130;48.472;11.934;2023-04-09T03:55:55;19.20;;;2.40;;
4232;SDS011;2130;48.472;11.934;2023-04-09T03:58:45;17.87;;;2.40;;
4232;SDS011;2130;48.472;11.934;2023-04-09T04:01:40;17.47;;;2.23;;
4232;SDS011;2130;48.472;11.934;2023-04-09T04:04:28;17.17;;;2.00;;
4232;SDS011;2130;48.472;11.934;2023-04-09T04:07:18;17.90;;;2.20;;
4232;SDS011;2130;48.472;11.934;2023-04-09T04:10:11;16.50;;;1.60;;
4232;SDS011;2130;48.472;11.934;2023-04-09T04:13:04;18.43;;;2.30;;
4232;SDS011;2130;48.472;11.934;2023-04-09T04:16:05;17.60;;;2.23;;
4232;SDS011;2130;48.472;11.934;2023-04-09T04:18:57;17.30;;;2.63;;
4232;SDS011;2130;48.472;11.934;2023-04-09T04:21:47;17.77;;;2.30;;
4232;SDS011;2130;48.472;11.934;2023-04-09T04:24:36;19.17;;;2.10;;
4232;SDS011;2130;48.472;11.934;2023-04-09T04:27:25;18.30;;;2.20;;
4232;SDS011;2130;48.472;11.934;2023-04-09T04:30:13;16.30;;;1.73;;
4232;SDS011;2130;48.472;11.934;2023-04-09T04:33:21;18.53;;;1.90;;
4232;SDS011;2130;48.472;11.934;2023-04-09T04:36:13;17.27;;;2.20;;
4232;SDS011;2130;48.472;11.934;2023-04-09T04:39:06;17.73;;;2.80;;
4232;SDS011;2130;48.472;11.934;2023-04-09T04:42:38;17.23;;;2.20;;
4232;SDS011;2130;48.472;11.934;2023-04-09T04:45:31;17.60;;;2.57;;
4232;SDS011;2130;48.472;11.934;2023-04-09T04:48:25;18.27;;;2.20;;
4232;SDS011;2130;48.472;11.934;2023-04-09T04:51:15;15.90;;;1.70;;
4232;SDS011;2130;48.472;11.934;2023-04-09T04:54:15;28.53;;;2.67;;
4232;SDS011;2130;48.472;11.934;2023-04-09T04:57:10;17.77;;;2.43;;
4232;SDS011;2130;48.472;11.934;2023-04-09T05:00:00;17.40;;;2.23;;
4232;SDS011;2130;48.472;11.934;2023-04-09T05:02:48;17.83;;;2.47;;
4232;SDS011;2130;48.472;11.934;2023-04-09T05:05:41;17.10;;;2.10;;
4232;SDS011;2130;48.472;11.934;2023-04-09T05:08:31;17.30;;;2.20;;
4232;SDS011;2130;48.472;11.934;2023-04-09T05:11:20;17.67;;;2.00;;
4232;SDS011;2130;48.472;11.934;2023-04-09T05:14:08;17.30;;;2.80;;
4232;SDS011;2130;48.472;11.934;2023-04-09T05:16:59;18.00;;;2.23;;
4232;SDS011;2130;48.472;11.934;2023-04-09T05:19:58;18.07;;;2.70;;
4232;SDS011;2130;48.472;11.934;2023-04-09T05:22:56;20.37;;;2.67;;
4232;SDS011;2130;48.472;11.934;2023-04-09T05:25:51;17.43;;;2.37;;
4232;SDS011;2130;48.472;11.934;2023-04-09T05:28:51;17.13;;;2.90;;
4232;SDS011;2130;48.472;11.934;2023-04-09T05:31:42;18.60;;;2.63;;
4232;SDS011;2130;48.472;11.934;2023-04-09T05:34:39;20.83;;;3.20;;
4232;SDS011;2130;48.472;11.934;2023-04-09T05:37:28;19.00;;;2.93;;
4232;SDS011;2130;48.472;11.934;2023-04-09T05:40:16;18.63;;;2.93;;
4232;SDS011;2130;48.472;11.934;2023-04-09T05:43:07;19.47;;;2.83;;
4232;SDS011;2130;48.472;11.934;2023-04-09T05:46:01;18.30;;;2.40;;
4232;SDS011;2130;48.472;11.934;2023-04-09T05:48:50;20.67;;;2.90;;
4232;SDS011;2130;48.472;11.934;2023-04-09T05:51:40;19.70;;;3.43;;
4232;SDS011;2130;48.472;11.934;2023-04-09T05:54:30;18.47;;;2.70;;
4232;SDS011;2130;48.472;11.934;2023-04-09T05:57:18;18.50;;;3.50;;
4232;SDS011;2130;48.472;11.934;2023-04-09T06:00:15;21.50;;;3.27;;
4232;SDS011;2130;48.472;11.934;2023-04-09T06:03:07;18.70;;;3.80;;
4232;SDS011;2130;48.472;11.934;2023-04-09T06:05:57;20.00;;;3.40;;
4232;SDS011;2130;48.472;11.934;2023-04-09T06:08:46;18.40;;;2.43;;
4232;SDS011;2130;48.472;11.934;2023-04-09T06:11:35;19.40;;;2.83;;
4232;SDS011;2130;48.472;11.934;2023-04-09T06:14:23;20.20;;;3.40;;
4232;SDS011;2130;48.472;11.934;2023-04-09T06:17:13;18.63;;;3.43;;
4232;SDS011;2130;48.472;11.934;2023-04-09T06:20:01;20.37;;;3.50;;
4232;SDS011;2130;48.472;11.934;2023-04-09T06:22:50;17.73;;;2.80;;
4232;SDS011;2130;48.472;11.934;2023-04-09T06:25:38;19.60;;;3.13;;
4232;SDS011;2130;48.472;11.934;2023-04-09T06:28:27;19.43;;;3.33;;
4232;SDS011;2130;48.472;11.934;2023-04-09T06:31:17;19.60;;;2.97;;
4232;SDS011;2130;48.472;11.934;2023-04-09T06:34:09;17.63;;;2.60;;
4232;SDS011;2130;48.472;11.934;2023-04-09T06:36:57;17.67;;;3.20;;
4232;SDS011;2130;48.472;11.934;2023-04-09T06:39:47;16.90;;;2.70;;
4232;SDS011;2130;48.472;11.934;2023-04-09T06:42:47;18.13;;;2.67;;
4232;SDS011;2130;48.472;11.934;2023-04-09T06:45:41;20.10;;;3.20;;
4232;SDS011;2130;48.472;11.934;2023-04-09T06:48:29;17.80;;;2.40;;
4232;SDS011;2130;48.472;11.934;2023-04-09T06:51:19;19.13;;;2.60;;
4232;SDS011;2130;48.472;11.934;2023-04-09T06:54:07;18.60;;;2.40;;
4232;SDS011;2130;48.472;11.934;2023-04-09T06:56:56;18.87;;;3.00;;
4232;SDS011;2130;48.472;11.934;2023-04-09T06:59:44;18.90;;;3.00;;
4232;SDS011;2130;48.472;11.934;2023-04-09T07:02:32;20.20;;;2.80;;
4232;SDS011;2130;48.472;11.934;2023-04-09T07:05:21;19.50;;;2.63;;
4232;SDS011;2130;48.472;11.934;2023-04-09T07:08:11;18.40;;;2.80;;
4232;SDS011;2130;48.472;11.934;2023-04-09T07:10:59;18.07;;;2.30;;
4232;SDS011;2130;48.472;11.934;2023-04-09T07:13:49;16.57;;;2.07;;
4232;SDS011;2130;48.472;11.934;2023-04-09T07:16:38;19.90;;;2.73;;
4232;SDS011;2130;48.472;11.934;2023-04-09T07:19:26;19.50;;;3.00;;
4232;SDS011;2130;48.472;11.934;2023-04-09T07:22:14;18.10;;;2.67;;
4232;SDS011;2130;48.472;11.934;2023-04-09T07:25:05;19.43;;;3.10;;
4232;SDS011;2130;48.472;11.934;2023-04-09T07:27:54;19.00;;;3.27;;
4232;SDS011;2130;48.472;11.934;2023-04-09T07:30:43;21.40;;;3.03;;
4232;SDS011;2130;48.472;11.934;2023-04-09T07:33:32;23.30;;;3.27;;
4232;SDS011;2130;48.472;11.934;2023-04-09T07:36:20;24.23;;;3.80;;
4232;SDS011;2130;48.472;11.934;2023-04-09T07:39:10;19.70;;;2.83;;
4232;SDS011;2130;48.472;11.934;2023-04-09T07:42:02;18.47;;;2.40;;
4232;SDS011;2130;48.472;11.934;2023-04-09T07:44:50;22.20;;;3.77;;
4232;SDS011;2130;48.472;11.934;2023-04-09T07:47:39;20.80;;;3.27;;
4232;SDS011;2130;48.472;11.934;2023-04-09T07:50:28;21.30;;;2.93;;
4232;SDS011;2130;48.472;11.934;2023-04-09T07:53:16;20.23;;;3.00;;
4232;SDS011;2130;48.472;11.934;2023-04-09T07:56:05;22.00;;;3.63;;
4232;SDS011;2130;48.472;11.934;2023-04-09T07:58:55;22.70;;;3.00;;
4232;SDS011;2130;48.472;11.934;2023-04-09T08:01:44;21.73;;;3.83;;
4232;SDS011;2130;48.472;11.934;2023-04-09T08:04:32;20.13;;;2.70;;
4232;SDS011;2130;48.472;11.934;2023-04-09T08:07:21;21.20;;;3.23;;
4232;SDS011;2130;48.472;11.934;2023-04-09T08:10:09;19.20;;;2.70;;
4232;SDS011;2130;48.472;11.934;2023-04-09T08:13:01;20.80;;;2.93;;
4232;SDS011;2130;48.472;11.934;2023-04-09T08:15:51;20.30;;;2.50;;
4232;SDS011;2130;48.472;11.934;2023-04-09T08:18:39;22.57;;;3.43;;
4232;SDS011;2130;48.472;11.934;2023-04-09T08:21:27;23.67;;;3.43;;
4232;SDS011;2130;48.472;11.934;2023-04-09T08:24:16;21.70;;;3.63;;
4232;SDS011;2130;48.472;11.934;2023-04-09T08:27:04;21.93;;;3.50;;
4232;SDS011;2130;48.472;11.934;2023-04-09T08:29:53;20.13;;;2.90;;
4232;SDS011;2130;48.472;11.934;2023-04-09T08:32:42;22.77;;;3.00;;
4232;SDS011;2130;48.472;11.934;2023-04-09T08:35:31;20.60;;;3.07;;
4232;SDS011;2130;48.472;11.934;2023-04-09T08:38:20;21.17;;;3.17;;
4232;SDS011;2130;48.472;11.934;2023-04-09T08:41:14;20.90;;;3.20;;
4232;SDS011;2130;48.472;11.934;2023-04-09T08:44:04;20.83;;;3.30;;
4232;SDS011;2130;48.472;11.934;2023-04-09T08:46:53;21.90;;;3.17;;
4232;SDS011;2130;48.472;11.934;2023-04-09T08:49:46;20.97;;;3.00;;
4232;SDS011;2130;48.472;11.934;2023-04-09T08:52:36;19.90;;;2.67;;
4232;SDS011;2130;48.472;11.934;2023-04-09T08:55:25;20.77;;;3.23;;
4232;SDS011;2130;48.472;11.934;2023-04-09T08:58:13;19.87;;;3.57;;
4232;SDS011;2130;48.472;11.934;2023-04-09T09:01:01;20.30;;;2.90;;
4232;SDS011;2130;48.472;11.934;2023-04-09T09:03:54;23.83;;;3.67;;
4232;SDS011;2130;48.472;11.934;2023-04-09T09:06:45;19.63;;;2.73;;
4232;SDS011;2130;48.472;11.934;2023-04-09T09:09:33;20.20;;;2.87;;
4232;SDS011;2130;48.472;11.934;2023-04-09T09:12:37;20.00;;;3.40;;
4232;SDS011;2130;48.472;11.934;2023-04-09T09:15:28;21.97;;;3.63;;
4232;SDS011;2130;48.472;11.934;2023-04-09T09:18:17;21.77;;;3.33;;
4232;SDS011;2130;48.472;11.934;2023-04-09T09:21:09;21.40;;;3.10;;
4232;SDS011;2130;48.472;11.934;2023-04-09T09:23:59;18.83;;;2.87;;
4232;SDS011;2130;48.472;11.934;2023-04-09T09:26:48;19.00;;;2.50;;
4232;SDS011;2130;48.472;11.934;2023-04-09T09:29:36;19.97;;;3.10;;
4232;SDS011;2130;48.472;11.934;2023-04-09T09:32:28;20.30;;;2.60;;
4232;SDS011;2130;48.472;11.934;2023-04-09T09:35:16;23.63;;;3.17;;
4232;SDS011;2130;48.472;11.934;2023-04-09T09:38:05;20.00;;;2.53;;
4232;SDS011;2130;48.472;11.934;2023-04-09T09:40:55;19.70;;;2.73;;
4232;SDS011;2130;48.472;11.934;2023-04-09T09:43:43;20.93;;;3.43;;
4232;SDS011;2130;48.472;11.934;2023-04-09T09:46:33;19.80;;;3.10;;
4232;SDS011;2130;48.472;11.934;2023-04-09T09:49:22;20.90;;;2.90;;
4232;SDS011;2130;48.472;11.934;2023-04-09T09:52:10;20.20;;;2.50;;
4232;SDS011;2130;48.472;11.934;2023-04-09T09:54:58;19.87;;;2.93;;
4232;SDS011;2130;48.472;11.934;2023-04-09T09:57:51;20.70;;;2.93;;
4232;SDS011;2130;48.472;11.934;2023-04-09T10:00:40;19.00;;;2.83;;
4232;SDS011;2130;48.472;11.934;2023-04-09T10:03:28;23.30;;;3.20;;
4232;SDS011;2130;48.472;11.934;2023-04-09T10:06:18;19.77;;;3.20;;
4232;SDS011;2130;48.472;11.934;2023-04-09T10:09:07;18.17;;;2.90;;
4232;SDS011;2130;48.472;11.934;2023-04-09T10:11:56;18.33;;;2.60;;
4232;SDS011;2130;48.472;11.934;2023-04-09T10:14:46;19.97;;;3.30;;
4232;SDS011;2130;48.472;11.934;2023-04-09T10:17:35;19.60;;;2.67;;
4232;SDS011;2130;48.472;11.934;2023-04-09T10:20:25;18.60;;;2.77;;
4232;SDS011;2130;48.472;11.934;2023-04-09T10:23:18;20.43;;;2.67;;
4232;SDS011;2130;48.472;11.934;2023-04-09T10:26:12;19.27;;;3.10;;
4232;SDS011;2130;48.472;11.934;2023-04-09T10:29:03;19.87;;;3.67;;
4232;SDS011;2130;48.472;11.934;2023-04-09T10:32:02;19.00;;;2.87;;
4232;SDS011;2130;48.472;11.934;2023-04-09T10:34:55;21.33;;;3.07;;
4232;SDS011;2130;48.472;11.934;2023-04-09T10:37:47;20.10;;;3.10;;
4232;SDS011;2130;48.472;11.934;2023-04-09T10:40:39;19.10;;;3.00;;
4232;SDS011;2130;48.472;11.934;2023-04-09T10:43:28;21.10;;;3.30;;
4232;SDS011;2130;48.472;11.934;2023-04-09T10:46:27;20.20;;;3.30;;
4232;SDS011;2130;48.472;11.934;2023-04-09T10:49:18;20.47;;;3.27;;
4232;SDS011;2130;48.472;11.934;2023-04-09T10:52:08;19.53;;;2.60;;
4232;SDS011;2130;48.472;11.934;2023-04-09T10:54:59;19.30;;;2.83;;
4232;SDS011;2130;48.472;11.934;2023-04-09T10:57:48;20.63;;;3.10;;
4232;SDS011;2130;48.472;11.934;2023-04-09T11:00:37;20.13;;;3.00;;
4232;SDS011;2130;48.472;11.934;2023-04-09T11:03:27;19.60;;;3.00;;
4232;SDS011;2130;48.472;11.934;2023-04-09T11:06:18;21.50;;;2.77;;
4232;SDS011;2130;48.472;11.934;2023-04-09T11:09:07;18.70;;;2.87;;
4232;SDS011;2130;48.472;11.934;2023-04-09T11:11:55;17.67;;;2.43;;
4232;SDS011;2130;48.472;11.934;2023-04-09T11:14:44;17.30;;;2.53;;
4232;SDS011;2130;48.472;11.934;2023-04-09T11:17:34;17.70;;;2.33;;
4232;SDS011;2130;48.472;11.934;2023-04-09T11:20:23;20.00;;;3.00;;
4232;SDS011;2130;48.472;11.934;2023-04-09T11:23:16;18.40;;;2.80;;
4232;SDS011;2130;48.472;11.934;2023-04-09T11:26:05;19.00;;;2.80;;
4232;SDS011;2130;48.472;11.934;2023-04-09T11:28:54;22.17;;;3.00;;
4232;SDS011;2130;48.472;11.934;2023-04-09T11:31:44;19.80;;;3.20;;
4232;SDS011;2130;48.472;11.934;2023-04-09T11:34:32;21.17;;;3.07;;
4232;SDS011;2130;48.472;11.934;2023-04-09T11:37:20;19.83;;;3.30;;
4232;SDS011;2130;48.472;11.934;2023-04-09T11:40:15;17.90;;;2.27;;
4232;SDS011;2130;48.472;11.934;2023-04-09T11:43:06;18.37;;;2.70;;
4232;SDS011;2130;48.472;11.934;2023-04-09T11:45:55;20.80;;;3.00;;
4232;SDS011;2130;48.472;11.934;2023-04-09T11:48:43;18.90;;;2.80;;
4232;SDS011;2130;48.472;11.934;2023-04-09T11:51:32;18.37;;;2.70;;
4232;SDS011;2130;48.472;11.934;2023-04-09T11:54:21;19.27;;;2.90;;
4232;SDS011;2130;48.472;11.934;2023-04-09T11:57:11;18.20;;;3.17;;
4232;SDS011;2130;48.472;11.934;2023-04-09T11:59:59;18.27;;;2.90;;
4232;SDS011;2130;48.472;11.934;2023-04-09T12:02:58;18.67;;;2.60;;
4232;SDS011;2130;48.472;11.934;2023-04-09T12:05:49;17.33;;;2.47;;
4232;SDS011;2130;48.472;11.934;2023-04-09T12:08:38;20.03;;;3.17;;
4232;SDS011;2130;48.472;11.934;2023-04-09T12:11:27;18.47;;;2.90;;
4232;SDS011;2130;48.472;11.934;2023-04-09T12:14:17;19.33;;;2.80;;
4232;SDS011;2130;48.472;11.934;2023-04-09T12:17:07;18.10;;;2.80;;
4232;SDS011;2130;48.472;11.934;2023-04-09T12:19:55;19.73;;;3.07;;
4232;SDS011;2130;48.472;11.934;2023-04-09T12:22:44;17.77;;;2.67;;
4232;SDS011;2130;48.472;11.934;2023-04-09T12:25:33;18.67;;;2.60;;
4232;SDS011;2130;48.472;11.934;2023-04-09T12:28:23;20.23;;;3.20;;
4232;SDS011;2130;48.472;11.934;2023-04-09T12:31:13;18.60;;;2.80;;
4232;SDS011;2130;48.472;11.934;2023-04-09T12:34:01;17.13;;;2.40;;
4232;SDS011;2130;48.472;11.934;2023-04-09T12:36:49;18.30;;;2.50;;
4232;SDS011;2130;48.472;11.934;2023-04-09T12:39:38;19.90;;;2.70;;
4232;SDS011;2130;48.472;11.934;2023-04-09T12:42:26;17.00;;;2.30;;
4232;SDS011;2130;48.472;11.934;2023-04-09T12:45:16;17.23;;;2.67;;
4232;SDS011;2130;48.472;11.934;2023-04-09T12:48:06;18.87;;;2.40;;
4232;SDS011;2130;48.472;11.934;2023-04-09T12:50:54;18.00;;;2.57;;
4232;SDS011;2130;48.472;11.934;2023-04-09T12:53:43;18.13;;;2.27;;
4232;SDS011;2130;48.472;11.934;2023-04-09T12:56:32;17.07;;;2.60;;
4232;SDS011;2130;48.472;11.934;2023-04-09T12:59:21;19.67;;;2.70;;
4232;SDS011;2130;48.472;11.934;2023-04-09T13:02:09;17.53;;;2.90;;
4232;SDS011;2130;48.472;11.934;2023-04-09T13:05:00;18.23;;;2.90;;
4232;SDS011;2130;48.472;11.934;2023-04-09T13:07:48;18.57;;;3.00;;
4232;SDS011;2130;48.472;11.934;2023-04-09T13:10:37;17.13;;;2.80;;
4232;SDS011;2130;48.472;11.934;2023-04-09T13:13:25;18.83;;;2.73;;
4232;SDS011;2130;48.472;11.934;2023-04-09T13:16:14;16.90;;;2.80;;
4232;SDS011;2130;48.472;11.934;2023-04-09T13:19:05;17.33;;;3.10;;
4232;SDS011;2130;48.472;11.934;2023-04-09T13:21:55;15.80;;;2.20;;
4232;SDS011;2130;48.472;11.934;2023-04-09T13:24:43;16.33;;;2.17;;
4232;SDS011;2130;48.472;11.934;2023-04-09T13:27:31;16.93;;;2.40;;
4232;SDS011;2130;48.472;11.934;2023-04-09T13:30:20;16.23;;;2.70;;
4232;SDS011;2130;48.472;11.934;2023-04-09T13:33:08;17.00;;;2.30;;
4232;SDS011;2130;48.472;11.934;2023-04-09T13:35:57;18.33;;;2.50;;
4232;SDS011;2130;48.472;11.934;2023-04-09T13:38:47;19.23;;;2.87;;
4232;SDS011;2130;48.472;11.934;2023-04-09T13:41:36;19.53;;;2.70;;
4232;SDS011;2130;48.472;11.934;2023-04-09T13:44:24;17.67;;;2.90;;
4232;SDS011;2130;48.472;11.934;2023-04-09T13:47:13;17.20;;;2.70;;
4232;SDS011;2130;48.472;11.934;2023-04-09T13:50:07;17.13;;;2.53;;
4232;SDS011;2130;48.472;11.934;2023-04-09T13:52:59;18.70;;;2.70;;
4232;SDS011;2130;48.472;11.934;2023-04-09T13:55:53;19.73;;;2.37;;
4232;SDS011;2130;48.472;11.934;2023-04-09T13:58:41;15.13;;;2.27;;
4232;SDS011;2130;48.472;11.934;2023-04-09T14:01:29;16.10;;;2.10;;
4232;SDS011;2130;48.472;11.934;2023-04-09T14:04:18;18.80;;;2.70;;
4232;SDS011;2130;48.472;11.934;2023-04-09T14:07:07;17.47;;;2.10;;
4232;SDS011;2130;48.472;11.934;2023-04-09T14:09:56;18.13;;;2.40;;
4232;SDS011;2130;48.472;11.934;2023-04-09T14:12:45;14.97;;;1.87;;
4232;SDS011;2130;48.472;11.934;2023-04-09T14:15:34;14.47;;;1.83;;
4232;SDS011;2130;48.472;11.934;2023-04-09T14:18:22;16.40;;;2.27;;
4232;SDS011;2130;48.472;11.934;2023-04-09T14:21:10;18.00;;;2.63;;
4232;SDS011;2130;48.472;11.934;2023-04-09T14:23:59;14.40;;;1.63;;
4232;SDS011;2130;48.472;11.934;2023-04-09T14:26:48;17.73;;;2.33;;
4232;SDS011;2130;48.472;11.934;2023-04-09T14:29:41;14.73;;;2.20;;
4232;SDS011;2130;48.472;11.934;2023-04-09T14:32:29;15.30;;;2.23;;
4232;SDS011;2130;48.472;11.934;2023-04-09T14:35:17;14.40;;;2.27;;
4232;SDS011;2130;48.472;11.934;2023-04-09T14:38:06;14.03;;;2.10;;
4232;SDS011;2130;48.472;11.934;2023-04-09T14:40:55;12.87;;;1.40;;
4232;SDS011;2130;48.472;11.934;2023-04-09T14:43:44;14.20;;;2.33;;
4232;SDS011;2130;48.472;11.934;2023-04-09T14:46:34;14.67;;;2.10;;
4232;SDS011;2130;48.472;11.934;2023-04-09T14:49:23;15.07;;;2.10;;
4232;SDS011;2130;48.472;11.934;2023-04-09T14:52:12;12.17;;;2.00;;
4232;SDS011;2130;48.472;11.934;2023-04-09T14:55:00;13.80;;;2.33;;
4232;SDS011;2130;48.472;11.934;2023-04-09T14:57:48;12.13;;;1.90;;
4232;SDS011;2130;48.472;11.934;2023-04-09T15:00:37;11.97;;;2.20;;
4232;SDS011;2130;48.472;11.934;2023-04-09T15:03:27;12.70;;;2.20;;
4232;SDS011;2130;48.472;11.934;2023-04-09T15:06:16;12.17;;;2.20;;
4232;SDS011;2130;48.472;11.934;2023-04-09T15:09:04;11.20;;;2.03;;
4232;SDS011;2130;48.472;11.934;2023-04-09T15:11:52;11.93;;;2.10;;
4232;SDS011;2130;48.472;11.934;2023-04-09T15:14:41;11.60;;;1.90;;
4232;SDS011;2130;48.472;11.934;2023-04-09T15:17:30;11.37;;;2.20;;
4232;SDS011;2130;48.472;11.934;2023-04-09T15:20:20;11.27;;;1.90;;
4232;SDS011;2130;48.472;11.934;2023-04-09T15:23:08;13.07;;;2.10;;
4232;SDS011;2130;48.472;11.934;2023-04-09T15:25:56;12.43;;;2.27;;
4232;SDS011;2130;48.472;11.934;2023-04-09T15:28:45;10.80;;;2.07;;
4232;SDS011;2130;48.472;11.934;2023-04-09T15:31:33;11.50;;;2.17;;
4232;SDS011;2130;48.472;11.934;2023-04-09T15:34:22;11.63;;;1.83;;
4232;SDS011;2130;48.472;11.934;2023-04-09T15:37:12;11.00;;;2.10;;
4232;SDS011;2130;48.472;11.934;2023-04-09T15:40:02;9.27;;;1.47;;
4232;SDS011;2130;48.472;11.934;2023-04-09T15:42:50;11.10;;;1.83;;
4232;SDS011;2130;48.472;11.934;2023-04-09T15:45:39;11.30;;;1.90;;
4232;SDS011;2130;48.472;11.934;2023-04-09T15:48:28;10.00;;;1.90;;
4232;SDS011;2130;48.472;11.934;2023-04-09T15:51:16;11.50;;;2.00;;
4232;SDS011;2130;48.472;11.934;2023-04-09T15:54:06;11.53;;;2.00;;
4232;SDS011;2130;48.472;11.934;2023-04-09T15:56:54;11.07;;;1.93;;
4232;SDS011;2130;48.472;11.934;2023-04-09T15:59:43;11.13;;;1.70;;
4232;SDS011;2130;48.472;11.934;2023-04-09T16:02:31;11.57;;;1.77;;
4232;SDS011;2130;48.472;11.934;2023-04-09T16:05:19;10.90;;;1.47;;
4232;SDS011;2130;48.472;11.934;2023-04-09T16:08:08;11.13;;;1.70;;
4232;SDS011;2130;48.472;11.934;2023-04-09T16:10:58;11.53;;;1.60;;
4232;SDS011;2130;48.472;11.934;2023-04-09T16:13:47;10.50;;;1.50;;
4232;SDS011;2130;48.472;11.934;2023-04-09T16:16:35;11.27;;;2.13;;
4232;SDS011;2130;48.472;11.934;2023-04-09T16:19:24;10.00;;;1.50;;
4232;SDS011;2130;48.472;11.934;2023-04-09T16:22:14;10.73;;;1.60;;
4232;SDS011;2130;48.472;11.934;2023-04-09T16:25:03;11.20;;;1.60;;
4232;SDS011;2130;48.472;11.934;2023-04-09T16:27:53;10.67;;;1.67;;
4232;SDS011;2130;48.472;11.934;2023-04-09T16:30:42;10.23;;;1.43;;
4232;SDS011;2130;48.472;11.934;2023-04-09T16:33:31;12.00;;;1.80;;
4232;SDS011;2130;48.472;11.934;2023-04-09T16:36:19;12.47;;;1.80;;
4232;SDS011;2130;48.472;11.934;2023-04-09T16:39:08;11.40;;;1.90;;
4232;SDS011;2130;48.472;11.934;2023-04-09T16:41:56;12.50;;;1.97;;
4232;SDS011;2130;48.472;11.934;2023-04-09T16:44:46;13.20;;;2.10;;
4232;SDS011;2130;48.472;11.934;2023-04-09T16:47:34;13.33;;;2.20;;
4232;SDS011;2130;48.472;11.934;2023-04-09T16:50:23;12.73;;;1.83;;
4232;SDS011;2130;48.472;11.934;2023-04-09T16:53:12;14.00;;;2.10;;
4232;SDS011;2130;48.472;11.934;2023-04-09T16:56:00;13.40;;;2.20;;
4232;SDS011;2130;48.472;11.934;2023-04-09T16:58:48;13.33;;;1.73;;
4232;SDS011;2130;48.472;11.934;2023-04-09T17:01:38;12.73;;;1.70;;
4232;SDS011;2130;48.472;11.934;2023-04-09T17:04:27;13.00;;;1.63;;